Time,TemperatureF,DewpointF,PressureIn,WindDirection,WindDirectionDegrees,WindSpeedMPH,WindSpeedGustMPH,Humidity,HourlyPrecipIn,Conditions,Clouds,dailyrainin,SoftwareType,DateUTC
2013-02-21 00:05:00,17.3,14.4,29.79,West,265,12.0,12.0,88,0.00,,,0.00,Wunderground v.1.15,2013-02-21 05:05:00,
2013-02-21 00:10:00,17.3,14.4,29.79,WSW,240,10.0,10.0,88,0.00,,,0.00,Wunderground v.1.15,2013-02-21 05:10:00,
2013-02-21 00:15:00,17.3,14.4,29.79,West,277,9.0,12.0,88,0.00,,,0.00,Wunderground v.1.15,2013-02-21 05:15:00,
2013-02-21 00:20:00,17.2,14.3,29.80,West,265,11.0,11.0,88,0.00,,,0.00,Wunderground v.1.15,2013-02-21 05:20:00,
2013-02-21 00:25:00,17.2,14.3,29.79,West,259,11.0,11.0,88,0.00,,,0.00,Wunderground v.1.15,2013-02-21 05:25:00,
2013-02-21 00:30:00,17.2,14.3,29.80,West,279,12.0,19.0,88,0.00,,,0.00,Wunderground v.1.15,2013-02-21 05:30:00,
2013-02-21 00:35:00,17.1,14.4,29.79,WSW,257,12.0,19.0,89,0.00,,,0.00,Wunderground v.1.15,2013-02-21 05:35:00,
2013-02-21 00:40:00,17.1,14.2,29.80,West,267,11.0,11.0,88,0.00,,,0.00,Wunderground v.1.15,2013-02-21 05:40:00,
2013-02-21 00:45:00,17.1,14.4,29.80,West,273,11.0,11.0,89,0.00,,,0.00,Wunderground v.1.15,2013-02-21 05:45:00,
2013-02-21 00:50:00,17.0,14.3,29.80,West,267,10.0,10.0,89,0.00,,,0.00,Wunderground v.1.15,2013-02-21 05:50:00,
2013-02-21 00:55:00,17.0,14.3,29.79,WNW,288,8.0,10.0,89,0.00,,,0.00,Wunderground v.1.15,2013-02-21 05:55:00,
2013-02-21 01:00:00,17.0,14.3,29.79,West,274,8.0,11.0,89,0.00,,,0.00,Wunderground v.1.15,2013-02-21 06:00:00,
2013-02-21 01:05:00,17.1,14.2,29.79,West,267,10.0,11.0,88,0.00,,,0.00,Wunderground v.1.15,2013-02-21 06:05:00,
2013-02-21 01:10:00,16.9,14.2,29.79,WNW,293,11.0,12.0,89,0.00,,,0.00,Wunderground v.1.15,2013-02-21 06:10:00,
2013-02-21 01:15:00,16.8,14.1,29.79,West,274,10.0,12.0,89,0.00,,,0.00,Wunderground v.1.15,2013-02-21 06:15:00,
2013-02-21 01:20:00,16.8,14.4,29.79,West,260,9.0,10.0,90,0.00,,,0.00,Wunderground v.1.15,2013-02-21 06:20:00,
2013-02-21 01:25:00,16.7,14.3,29.79,West,279,9.0,11.0,90,0.00,,,0.00,Wunderground v.1.15,2013-02-21 06:25:00,
2013-02-21 01:30:00,16.7,14.3,29.79,WSW,255,9.0,10.0,90,0.00,,,0.00,Wunderground v.1.15,2013-02-21 06:30:00,
2013-02-21 01:35:00,16.7,14.3,29.79,WNW,295,9.0,12.0,90,0.00,,,0.00,Wunderground v.1.15,2013-02-21 06:35:00,
2013-02-21 01:45:00,16.8,14.4,29.79,West,265,10.0,10.0,90,0.00,,,0.00,Wunderground v.1.15,2013-02-21 06:45:00,
2013-02-21 01:50:00,17.1,14.7,29.78,West,275,8.0,8.0,90,0.00,,,0.00,Wunderground v.1.15,2013-02-21 06:50:00,
2013-02-21 01:55:00,17.0,14.3,29.78,West,267,6.0,9.0,89,0.00,,,0.00,Wunderground v.1.15,2013-02-21 06:55:00,
2013-02-21 02:00:00,17.1,14.4,29.79,West,263,7.0,7.0,89,0.00,,,0.00,Wunderground v.1.15,2013-02-21 07:00:00,
2013-02-21 02:05:00,17.0,14.3,29.79,West,261,8.0,8.0,89,0.00,,,0.00,Wunderground v.1.15,2013-02-21 07:05:00,
2013-02-21 02:09:00,17.0,14.3,29.78,West,267,8.0,10.0,89,0.00,,,0.00,Wunderground v.1.15,2013-02-21 07:09:00,
2013-02-21 02:15:00,17.0,14.3,29.79,West,273,7.0,10.0,89,0.00,,,0.00,Wunderground v.1.15,2013-02-21 07:15:00,
2013-02-21 02:20:00,17.0,14.3,29.78,WNW,286,7.0,9.0,89,0.00,,,0.00,Wunderground v.1.15,2013-02-21 07:20:00,
2013-02-21 02:25:00,16.9,14.2,29.79,West,265,6.0,9.0,89,0.00,,,0.00,Wunderground v.1.15,2013-02-21 07:25:00,
2013-02-21 02:30:00,16.8,14.1,29.79,West,265,5.0,9.0,89,0.00,,,0.00,Wunderground v.1.15,2013-02-21 07:30:00,
2013-02-21 02:35:00,16.8,14.1,29.78,West,265,6.0,9.0,89,0.00,,,0.00,Wunderground v.1.15,2013-02-21 07:35:00,
2013-02-21 02:40:00,16.9,14.2,29.78,WSW,251,7.0,9.0,89,0.00,,,0.00,Wunderground v.1.15,2013-02-21 07:40:00,
2013-02-21 02:50:00,16.8,14.1,29.78,WSW,257,8.0,9.0,89,0.00,,,0.00,Wunderground v.1.15,2013-02-21 07:50:00,
2013-02-21 02:55:00,16.6,13.9,29.78,West,263,8.0,9.0,89,0.00,,,0.00,Wunderground v.1.15,2013-02-21 07:55:00,
2013-02-21 03:00:00,16.5,13.8,29.77,West,273,8.0,10.0,89,0.00,,,0.00,Wunderground v.1.15,2013-02-21 08:00:00,
2013-02-21 03:05:00,16.6,13.9,29.78,West,273,9.0,10.0,89,0.00,,,0.00,Wunderground v.1.15,2013-02-21 08:05:00,
2013-02-21 03:10:00,16.6,13.9,29.78,West,277,11.0,14.0,89,0.00,,,0.00,Wunderground v.1.15,2013-02-21 08:10:00,
2013-02-21 03:19:00,16.6,13.9,29.77,West,275,11.0,11.0,89,0.00,,,0.00,Wunderground v.1.15,2013-02-21 08:19:00,
2013-02-21 03:25:00,16.6,13.9,29.77,West,263,10.0,11.0,89,0.00,,,0.00,Wunderground v.1.15,2013-02-21 08:25:00,
2013-02-21 03:30:00,16.7,13.8,29.77,West,272,9.0,9.0,88,0.00,,,0.00,Wunderground v.1.15,2013-02-21 08:30:00,
2013-02-21 03:35:00,16.7,13.8,29.78,West,273,8.0,9.0,88,0.00,,,0.00,Wunderground v.1.15,2013-02-21 08:35:00,
2013-02-21 03:40:00,16.8,13.9,29.78,West,281,8.0,10.0,88,0.00,,,0.00,Wunderground v.1.15,2013-02-21 08:40:00,
2013-02-21 03:50:00,16.9,14.2,29.78,West,267,11.0,11.0,89,0.00,,,0.00,Wunderground v.1.15,2013-02-21 08:50:00,
2013-02-21 03:55:00,16.8,14.1,29.78,WNW,294,12.0,12.0,89,0.00,,,0.00,Wunderground v.1.15,2013-02-21 08:55:00,
2013-02-21 04:00:00,16.8,14.1,29.78,WNW,284,12.0,12.0,89,0.00,,,0.00,Wunderground v.1.15,2013-02-21 09:00:00,
2013-02-21 04:05:00,16.8,14.4,29.78,NW,321,10.0,21.0,90,0.00,,,0.00,Wunderground v.1.15,2013-02-21 09:05:00,
2013-02-21 04:10:00,16.8,14.4,29.78,West,279,11.0,11.0,90,0.00,,,0.00,Wunderground v.1.15,2013-02-21 09:10:00,
2013-02-21 04:15:00,16.7,14.5,29.78,WNW,286,12.0,18.0,91,0.00,,,0.00,Wunderground v.1.15,2013-02-21 09:15:00,
2013-02-21 04:25:00,16.7,14.5,29.79,WNW,294,11.0,15.0,91,0.00,,,0.00,Wunderground v.1.15,2013-02-21 09:25:00,
2013-02-21 04:30:00,16.7,14.5,29.79,West,277,10.0,11.0,91,0.00,,,0.00,Wunderground v.1.15,2013-02-21 09:30:00,
2013-02-21 04:35:00,16.5,14.3,29.79,West,281,13.0,13.0,91,0.00,,,0.00,Wunderground v.1.15,2013-02-21 09:35:00,
2013-02-21 04:40:00,16.7,14.8,29.79,WNW,300,11.0,11.0,92,0.00,,,0.00,Wunderground v.1.15,2013-02-21 09:40:00,
2013-02-21 04:45:00,16.6,14.7,29.79,ESE,107,8.0,11.0,92,0.00,,,0.00,Wunderground v.1.15,2013-02-21 09:45:00,
2013-02-21 04:55:00,16.4,14.5,29.80,NE,54,9.0,14.0,92,0.00,,,0.00,Wunderground v.1.15,2013-02-21 09:55:00,
2013-02-21 05:00:00,16.4,14.5,29.80,WNW,282,11.0,12.0,92,0.00,,,0.00,Wunderground v.1.15,2013-02-21 10:00:00,
2013-02-21 05:05:00,16.2,14.0,29.81,NW,304,12.0,12.0,91,0.00,,,0.00,Wunderground v.1.15,2013-02-21 10:05:00,
2013-02-21 05:10:00,16.2,14.3,29.81,WNW,294,12.0,12.0,92,0.00,,,0.00,Wunderground v.1.15,2013-02-21 10:10:00,
2013-02-21 05:15:00,16.0,13.8,29.81,West,278,11.0,12.0,91,0.00,,,0.00,Wunderground v.1.15,2013-02-21 10:15:00,
2013-02-21 05:24:00,16.1,14.2,29.82,WNW,292,9.0,11.0,92,0.00,,,0.00,Wunderground v.1.15,2013-02-21 10:24:00,
2013-02-21 05:29:00,16.0,14.1,29.82,NW,311,8.0,8.0,92,0.00,,,0.00,Wunderground v.1.15,2013-02-21 10:29:00,
2013-02-21 05:34:00,15.9,14.0,29.82,WNW,292,10.0,12.0,92,0.00,,,0.00,Wunderground v.1.15,2013-02-21 10:34:00,
2013-02-21 05:40:00,15.7,13.8,29.82,WNW,302,11.0,11.0,92,0.00,,,0.00,Wunderground v.1.15,2013-02-21 10:40:00,
2013-02-21 05:45:00,15.5,13.6,29.82,WNW,293,10.0,19.0,92,0.00,,,0.00,Wunderground v.1.15,2013-02-21 10:45:00,
2013-02-21 05:55:00,15.4,13.5,29.83,NE,35,14.0,14.0,92,0.00,,,0.00,Wunderground v.1.15,2013-02-21 10:55:00,
2013-02-21 06:00:00,15.3,13.4,29.83,WNW,303,12.0,20.0,92,0.00,,,0.00,Wunderground v.1.15,2013-02-21 11:00:00,
2013-02-21 06:05:00,15.2,13.3,29.83,WNW,298,13.0,20.0,92,0.00,,,0.00,Wunderground v.1.15,2013-02-21 11:05:00,
2013-02-21 06:10:00,14.9,13.0,29.83,WNW,283,14.0,20.0,92,0.00,,,0.00,Wunderground v.1.15,2013-02-21 11:10:00,
2013-02-21 06:15:00,14.7,12.8,29.84,NNE,17,11.0,20.0,92,0.00,,,0.00,Wunderground v.1.15,2013-02-21 11:15:00,
2013-02-21 06:20:00,14.4,12.5,29.85,NW,323,8.0,8.0,92,0.00,,,0.00,Wunderground v.1.15,2013-02-21 11:20:00,
2013-02-21 06:29:00,14.2,12.3,29.85,West,279,9.0,21.0,92,0.00,,,0.00,Wunderground v.1.15,2013-02-21 11:29:00,
2013-02-21 06:34:00,14.2,12.3,29.85,WNW,295,11.0,21.0,92,0.00,,,0.00,Wunderground v.1.15,2013-02-21 11:34:00,
2013-02-21 06:40:00,14.0,11.9,29.85,WNW,291,15.0,15.0,91,0.00,,,0.00,Wunderground v.1.15,2013-02-21 11:40:00,
2013-02-21 06:45:00,13.7,11.6,29.85,WNW,286,16.0,16.0,91,0.00,,,0.00,Wunderground v.1.15,2013-02-21 11:45:00,
2013-02-21 06:50:00,13.7,11.6,29.86,North,360,16.0,16.0,91,0.00,,,0.00,Wunderground v.1.15,2013-02-21 11:50:00,
2013-02-21 07:00:00,13.4,11.3,29.85,WNW,295,14.0,14.0,91,0.00,,,0.00,Wunderground v.1.15,2013-02-21 12:00:00,
2013-02-21 07:05:00,13.5,11.4,29.86,NNW,329,13.0,14.0,91,0.00,,,0.00,Wunderground v.1.15,2013-02-21 12:05:00,
2013-02-21 07:10:00,13.6,11.5,29.87,WNW,290,10.0,10.0,91,0.00,,,0.00,Wunderground v.1.15,2013-02-21 12:10:00,
2013-02-21 07:15:00,13.8,11.9,29.87,ENE,61,8.0,10.0,92,0.00,,,0.00,Wunderground v.1.15,2013-02-21 12:15:00,
2013-02-21 07:20:00,13.1,11.0,29.88,NNW,348,11.0,18.0,91,0.00,,,0.00,Wunderground v.1.15,2013-02-21 12:20:00,
2013-02-21 07:30:00,12.4,10.5,29.88,WNW,289,13.0,26.0,92,0.00,,,0.00,Wunderground v.1.15,2013-02-21 12:30:00,
2013-02-21 07:35:00,12.2,10.3,29.88,South,182,12.0,26.0,92,0.00,,,0.00,Wunderground v.1.15,2013-02-21 12:35:00,
2013-02-21 07:39:00,12.1,10.2,29.89,West,277,11.0,11.0,92,0.00,,,0.00,Wunderground v.1.15,2013-02-21 12:39:00,
2013-02-21 07:44:00,12.0,10.1,29.89,NNW,333,11.0,11.0,92,0.00,,,0.00,Wunderground v.1.15,2013-02-21 12:44:00,
2013-02-21 07:49:00,12.0,10.1,29.89,NNW,330,9.0,9.0,92,0.00,,,0.00,Wunderground v.1.15,2013-02-21 12:49:00,
2013-02-21 07:55:00,12.4,10.5,29.90,NW,306,7.0,10.0,92,0.00,,,0.00,Wunderground v.1.15,2013-02-21 12:55:00,
2013-02-21 08:00:00,12.3,10.4,29.90,NW,324,10.0,13.0,92,0.00,,,0.00,Wunderground v.1.15,2013-02-21 13:00:00,
2013-02-21 08:05:00,12.2,10.3,29.90,NW,306,12.0,13.0,92,0.00,,,0.00,Wunderground v.1.15,2013-02-21 13:05:00,
2013-02-21 08:10:00,12.3,10.2,29.91,WNW,287,11.0,13.0,91,0.00,,,0.00,Wunderground v.1.15,2013-02-21 13:10:00,
2013-02-21 08:15:00,12.1,10.0,29.91,NNE,13,12.0,13.0,91,0.00,,,0.00,Wunderground v.1.15,2013-02-21 13:15:00,
2013-02-21 08:20:00,11.9,9.8,29.91,West,273,13.0,13.0,91,0.00,,,0.00,Wunderground v.1.15,2013-02-21 13:20:00,
2013-02-21 08:25:00,11.7,9.6,29.91,West,279,14.0,16.0,91,0.00,,,0.00,Wunderground v.1.15,2013-02-21 13:25:00,
2013-02-21 08:35:00,11.6,9.5,29.91,WNW,283,14.0,14.0,91,0.00,,,0.00,Wunderground v.1.15,2013-02-21 13:35:00,
2013-02-21 08:40:00,11.5,9.1,29.91,WNW,296,16.0,20.0,90,0.00,,,0.00,Wunderground v.1.15,2013-02-21 13:40:00,
2013-02-21 08:45:00,11.5,9.4,29.91,WNW,287,15.0,20.0,91,0.00,,,0.00,Wunderground v.1.15,2013-02-21 13:45:00,
2013-02-21 08:50:00,11.6,9.5,29.92,NNW,327,13.0,13.0,91,0.00,,,0.00,Wunderground v.1.15,2013-02-21 13:50:00,
2013-02-21 08:55:00,11.7,9.6,29.92,NW,325,11.0,13.0,91,0.00,,,0.00,Wunderground v.1.15,2013-02-21 13:55:00,
2013-02-21 09:00:00,11.8,9.7,29.93,WNW,297,11.0,11.0,91,0.00,,,0.00,Wunderground v.1.15,2013-02-21 14:00:00,
2013-02-21 09:10:00,11.7,9.3,29.93,NNE,13,10.0,10.0,90,0.00,,,0.00,Wunderground v.1.15,2013-02-21 14:10:00,
2013-02-21 09:15:00,11.5,9.1,29.93,WNW,299,10.0,10.0,90,0.00,,,0.00,Wunderground v.1.15,2013-02-21 14:15:00,
2013-02-21 09:20:00,11.4,9.0,29.94,WNW,300,10.0,10.0,90,0.00,,,0.00,Wunderground v.1.15,2013-02-21 14:20:00,
2013-02-21 09:24:00,11.4,9.3,29.94,North,360,10.0,11.0,91,0.00,,,0.00,Wunderground v.1.15,2013-02-21 14:24:00,
2013-02-21 09:29:00,11.5,9.4,29.95,NW,308,10.0,10.0,91,0.00,,,0.00,Wunderground v.1.15,2013-02-21 14:29:00,
2013-02-21 09:35:00,11.3,8.9,29.94,West,280,10.0,10.0,90,0.00,,,0.00,Wunderground v.1.15,2013-02-21 14:35:00,
2013-02-21 09:40:00,11.2,8.8,29.95,WNW,290,11.0,13.0,90,0.00,,,0.00,Wunderground v.1.15,2013-02-21 14:40:00,
2013-02-21 09:45:00,11.3,8.9,29.95,WNW,292,11.0,13.0,90,0.00,,,0.00,Wunderground v.1.15,2013-02-21 14:45:00,
2013-02-21 09:50:00,11.3,9.2,29.95,WNW,283,10.0,10.0,91,0.00,,,0.00,Wunderground v.1.15,2013-02-21 14:50:00,
2013-02-21 09:55:00,11.3,8.9,29.96,WNW,296,10.0,10.0,90,0.00,,,0.00,Wunderground v.1.15,2013-02-21 14:55:00,
2013-02-21 10:00:00,11.2,8.8,29.95,WNW,290,10.0,10.0,90,0.00,,,0.00,Wunderground v.1.15,2013-02-21 15:00:00,
2013-02-21 10:10:00,11.1,8.7,29.97,North,350,11.0,11.0,90,0.00,,,0.00,Wunderground v.1.15,2013-02-21 15:10:00,
2013-02-21 10:15:00,11.0,8.6,29.97,WNW,286,10.0,14.0,90,0.00,,,0.00,Wunderground v.1.15,2013-02-21 15:15:00,
2013-02-21 10:20:00,10.7,8.3,29.97,NW,304,10.0,10.0,90,0.00,,,0.00,Wunderground v.1.15,2013-02-21 15:20:00,
2013-02-21 10:25:00,10.4,8.0,29.97,WNW,295,13.0,13.0,90,0.00,,,0.00,Wunderground v.1.15,2013-02-21 15:25:00,
2013-02-21 10:30:00,10.3,8.0,29.97,WNW,286,13.0,15.0,90,0.00,,,0.00,Wunderground v.1.15,2013-02-21 15:30:00,
2013-02-21 10:35:00,10.4,8.3,29.98,NW,318,12.0,15.0,91,0.00,,,0.00,Wunderground v.1.15,2013-02-21 15:35:00,
2013-02-21 10:40:00,10.6,8.2,29.98,NNW,334,10.0,10.0,90,0.00,,,0.00,Wunderground v.1.15,2013-02-21 15:40:00,
2013-02-21 10:45:00,10.6,8.2,29.98,NW,305,9.0,13.0,90,0.00,,,0.00,Wunderground v.1.15,2013-02-21 15:45:00,
2013-02-21 10:50:00,10.8,8.4,29.99,WNW,300,9.0,9.0,90,0.00,,,0.00,Wunderground v.1.15,2013-02-21 15:50:00,
2013-02-21 10:55:00,10.7,8.3,29.99,West,277,8.0,11.0,90,0.00,,,0.00,Wunderground v.1.15,2013-02-21 15:55:00,
2013-02-21 11:00:00,10.7,8.3,29.99,West,281,9.0,12.0,90,0.00,,,0.00,Wunderground v.1.15,2013-02-21 16:00:00,
2013-02-21 11:10:00,11.4,9.0,29.99,NNW,336,7.0,7.0,90,0.00,,,0.00,Wunderground v.1.15,2013-02-21 16:10:00,
2013-02-21 11:15:00,11.2,8.8,30.00,WNW,295,7.0,8.0,90,0.00,,,0.00,Wunderground v.1.15,2013-02-21 16:15:00,
2013-02-21 11:20:00,11.1,8.7,30.00,North,11,8.0,8.0,90,0.00,,,0.00,Wunderground v.1.15,2013-02-21 16:20:00,
2013-02-21 11:25:00,11.1,8.7,30.00,West,261,9.0,10.0,90,0.00,,,0.00,Wunderground v.1.15,2013-02-21 16:25:00,
2013-02-21 11:30:00,11.0,8.6,30.00,WNW,286,10.0,11.0,90,0.00,,,0.00,Wunderground v.1.15,2013-02-21 16:30:00,
2013-02-21 11:35:00,11.0,8.6,30.00,WNW,286,10.0,15.0,90,0.00,,,0.00,Wunderground v.1.15,2013-02-21 16:35:00,
2013-02-21 11:40:00,11.0,8.6,30.00,West,279,10.0,12.0,90,0.00,,,0.00,Wunderground v.1.15,2013-02-21 16:40:00,
2013-02-21 11:45:00,11.2,8.8,30.00,ENE,60,10.0,12.0,90,0.00,,,0.00,Wunderground v.1.15,2013-02-21 16:45:00,
2013-02-21 11:50:00,11.2,8.8,29.99,SW,225,10.0,10.0,90,0.00,,,0.00,Wunderground v.1.15,2013-02-21 16:50:00,
2013-02-21 11:55:00,11.2,8.8,29.99,WNW,288,10.0,10.0,90,0.00,,,0.00,Wunderground v.1.15,2013-02-21 16:55:00,
2013-02-21 12:00:00,11.3,8.9,29.99,West,277,11.0,16.0,90,0.00,,,0.00,Wunderground v.1.15,2013-02-21 17:00:00,
2013-02-21 12:04:00,11.2,8.8,29.99,WNW,298,12.0,17.0,90,0.00,,,0.00,Wunderground v.1.15,2013-02-21 17:04:00,
2013-02-21 12:10:00,11.3,8.9,29.99,NNW,336,12.0,12.0,90,0.00,,,0.00,Wunderground v.1.15,2013-02-21 17:10:00,
2013-02-21 12:15:00,11.6,9.5,29.99,NE,46,9.0,12.0,91,0.00,,,0.00,Wunderground v.1.15,2013-02-21 17:15:00,
2013-02-21 12:20:00,12.1,10.0,29.99,NNW,335,6.0,6.0,91,0.00,,,0.00,Wunderground v.1.15,2013-02-21 17:20:00,
2013-02-21 12:25:00,12.0,9.6,29.99,NNE,12,6.0,9.0,90,0.00,,,0.00,Wunderground v.1.15,2013-02-21 17:25:00,
2013-02-21 12:30:00,12.1,9.7,29.99,NW,307,7.0,13.0,90,0.00,,,0.00,Wunderground v.1.15,2013-02-21 17:30:00,
2013-02-21 12:35:00,12.0,9.6,29.99,NW,318,7.0,13.0,90,0.00,,,0.00,Wunderground v.1.15,2013-02-21 17:35:00,
2013-02-21 12:45:00,11.9,9.5,30.00,NW,313,11.0,11.0,90,0.00,,,0.00,Wunderground v.1.15,2013-02-21 17:45:00,
2013-02-21 12:50:00,12.3,10.2,30.00,NW,321,8.0,9.0,91,0.00,,,0.00,Wunderground v.1.15,2013-02-21 17:50:00,
2013-02-21 12:55:00,12.0,9.6,30.00,WNW,296,8.0,9.0,90,0.00,,,0.00,Wunderground v.1.15,2013-02-21 17:55:00,
2013-02-21 13:00:00,12.2,9.8,30.00,NW,321,9.0,11.0,90,0.00,,,0.00,Wunderground v.1.15,2013-02-21 18:00:00,
2013-02-21 13:05:00,12.1,9.7,30.00,NNW,344,8.0,12.0,90,0.00,,,0.00,Wunderground v.1.15,2013-02-21 18:05:00,
2013-02-21 13:10:00,12.2,9.8,30.00,West,268,9.0,11.0,90,0.00,,,0.00,Wunderground v.1.15,2013-02-21 18:10:00,
2013-02-21 13:15:00,12.0,9.6,30.00,NNW,346,9.0,11.0,90,0.00,,,0.00,Wunderground v.1.15,2013-02-21 18:15:00,
2013-02-21 13:20:00,12.0,9.6,30.00,NW,311,11.0,15.0,90,0.00,,,0.00,Wunderground v.1.15,2013-02-21 18:20:00,
2013-02-21 13:25:00,12.2,9.8,30.00,WNW,303,11.0,15.0,90,0.00,,,0.00,Wunderground v.1.15,2013-02-21 18:25:00,
2013-02-21 13:30:00,12.2,9.8,30.00,NW,319,11.0,11.0,90,0.00,,,0.00,Wunderground v.1.15,2013-02-21 18:30:00,
2013-02-21 13:35:00,12.2,9.8,30.00,WNW,299,11.0,15.0,90,0.00,,,0.00,Wunderground v.1.15,2013-02-21 18:35:00,
2013-02-21 13:40:00,12.3,9.9,30.00,West,270,10.0,13.0,90,0.00,,,0.00,Wunderground v.1.15,2013-02-21 18:40:00,
2013-02-21 13:50:00,12.4,10.0,30.00,NW,314,10.0,10.0,90,0.00,,,0.00,Wunderground v.1.15,2013-02-21 18:50:00,
2013-02-21 13:55:00,12.2,9.8,30.00,WNW,298,11.0,11.0,90,0.00,,,0.00,Wunderground v.1.15,2013-02-21 18:55:00,
2013-02-21 14:00:00,12.4,10.0,30.00,WNW,290,12.0,12.0,90,0.00,,,0.00,Wunderground v.1.15,2013-02-21 19:00:00,
2013-02-21 14:05:00,12.8,10.4,30.01,NNE,17,9.0,12.0,90,0.00,,,0.00,Wunderground v.1.15,2013-02-21 19:05:00,
2013-02-21 14:10:00,13.0,10.6,30.01,West,269,7.0,11.0,90,0.00,,,0.00,Wunderground v.1.15,2013-02-21 19:10:00,
2013-02-21 14:20:00,12.9,10.5,30.02,NNW,332,9.0,9.0,90,0.00,,,0.00,Wunderground v.1.15,2013-02-21 19:20:00,
2013-02-21 14:25:00,13.0,10.6,30.02,NW,319,8.0,10.0,90,0.00,,,0.00,Wunderground v.1.15,2013-02-21 19:25:00,
2013-02-21 14:30:00,13.1,10.7,30.03,NNW,345,8.0,8.0,90,0.00,,,0.00,Wunderground v.1.15,2013-02-21 19:30:00,
2013-02-21 14:35:00,13.1,10.7,30.03,West,274,8.0,10.0,90,0.00,,,0.00,Wunderground v.1.15,2013-02-21 19:35:00,
2013-02-21 14:40:00,12.8,10.4,30.03,NW,326,9.0,13.0,90,0.00,,,0.00,Wunderground v.1.15,2013-02-21 19:40:00,
2013-02-21 14:45:00,12.9,10.5,30.04,WNW,298,10.0,13.0,90,0.00,,,0.00,Wunderground v.1.15,2013-02-21 19:45:00,
2013-02-21 14:50:00,13.0,10.6,30.04,NW,311,11.0,11.0,90,0.00,,,0.00,Wunderground v.1.15,2013-02-21 19:50:00,
2013-02-21 14:55:00,13.0,10.6,30.04,WNW,295,10.0,11.0,90,0.00,,,0.00,Wunderground v.1.15,2013-02-21 19:55:00,
2013-02-21 15:00:00,13.0,10.6,30.04,NW,317,8.0,9.0,90,0.00,,,0.00,Wunderground v.1.15,2013-02-21 20:00:00,
2013-02-21 15:05:00,13.0,10.6,30.05,NW,305,8.0,12.0,90,0.00,,,0.00,Wunderground v.1.15,2013-02-21 20:05:00,
2013-02-21 15:10:00,13.0,10.6,30.05,WNW,299,9.0,18.0,90,0.00,,,0.00,Wunderground v.1.15,2013-02-21 20:10:00,
2013-02-21 15:15:00,13.0,10.6,30.05,West,278,10.0,18.0,90,0.00,,,0.00,Wunderground v.1.15,2013-02-21 20:15:00,
2013-02-21 15:25:00,13.0,10.6,30.05,WNW,298,11.0,13.0,90,0.00,,,0.00,Wunderground v.1.15,2013-02-21 20:25:00,
2013-02-21 15:30:00,13.0,10.6,30.05,WNW,298,11.0,13.0,90,0.00,,,0.00,Wunderground v.1.15,2013-02-21 20:30:00,
2013-02-21 15:35:00,13.2,11.1,30.05,West,278,11.0,13.0,91,0.00,,,0.00,Wunderground v.1.15,2013-02-21 20:35:00,
2013-02-21 15:40:00,13.2,10.8,30.06,NW,310,10.0,10.0,90,0.00,,,0.00,Wunderground v.1.15,2013-02-21 20:40:00,
2013-02-21 15:50:00,13.1,10.7,30.07,WNW,296,12.0,13.0,90,0.00,,,0.00,Wunderground v.1.15,2013-02-21 20:50:00,
2013-02-21 15:55:00,13.2,11.1,30.08,WNW,293,11.0,13.0,91,0.00,,,0.00,Wunderground v.1.15,2013-02-21 20:55:00,
2013-02-21 16:00:00,13.2,10.8,30.08,WNW,289,11.0,19.0,90,0.00,,,0.00,Wunderground v.1.15,2013-02-21 21:00:00,
2013-02-21 16:05:00,13.0,10.6,30.08,NNE,15,11.0,19.0,90,0.00,,,0.00,Wunderground v.1.15,2013-02-21 21:05:00,
2013-02-21 16:10:00,13.1,11.0,30.08,NW,313,11.0,11.0,91,0.00,,,0.00,Wunderground v.1.15,2013-02-21 21:10:00,
2013-02-21 16:15:00,13.2,11.1,30.09,NW,323,10.0,11.0,91,0.00,,,0.00,Wunderground v.1.15,2013-02-21 21:15:00,
2013-02-21 16:25:00,13.2,10.8,30.09,WNW,302,12.0,15.0,90,0.00,,,0.00,Wunderground v.1.15,2013-02-21 21:25:00,
2013-02-21 16:30:00,13.2,10.8,30.10,West,280,11.0,13.0,90,0.00,,,0.00,Wunderground v.1.15,2013-02-21 21:30:00,
2013-02-21 16:35:00,13.1,10.7,30.10,WNW,295,10.0,13.0,90,0.00,,,0.00,Wunderground v.1.15,2013-02-21 21:35:00,
2013-02-21 16:40:00,12.9,10.5,30.10,WNW,286,11.0,12.0,90,0.00,,,0.00,Wunderground v.1.15,2013-02-21 21:40:00,
2013-02-21 16:45:00,13.1,10.7,30.11,WNW,296,11.0,12.0,90,0.00,,,0.00,Wunderground v.1.15,2013-02-21 21:45:00,
2013-02-21 16:50:00,13.2,10.8,30.12,NW,326,10.0,10.0,90,0.00,,,0.00,Wunderground v.1.15,2013-02-21 21:50:00,
2013-02-21 17:00:00,13.5,11.1,30.12,WNW,297,8.0,9.0,90,0.00,,,0.00,Wunderground v.1.15,2013-02-21 22:00:00,
2013-02-21 17:05:00,13.4,11.0,30.12,NW,320,9.0,9.0,90,0.00,,,0.00,Wunderground v.1.15,2013-02-21 22:05:00,
2013-02-21 17:10:00,13.0,10.6,30.12,WNW,302,11.0,13.0,90,0.00,,,0.00,Wunderground v.1.15,2013-02-21 22:10:00,
2013-02-21 17:15:00,12.8,10.4,30.12,NW,305,12.0,13.0,90,0.00,,,0.00,Wunderground v.1.15,2013-02-21 22:15:00,
2013-02-21 17:20:00,12.7,10.3,30.12,NW,312,11.0,11.0,90,0.00,,,0.00,Wunderground v.1.15,2013-02-21 22:20:00,
2013-02-21 17:25:00,12.8,10.4,30.12,NNW,335,8.0,11.0,90,0.00,,,0.00,Wunderground v.1.15,2013-02-21 22:25:00,
2013-02-21 17:30:00,12.9,10.5,30.13,WNW,301,6.0,9.0,90,0.00,,,0.00,Wunderground v.1.15,2013-02-21 22:30:00,
2013-02-21 17:35:00,12.9,10.5,30.14,NW,305,7.0,13.0,90,0.00,,,0.00,Wunderground v.1.15,2013-02-21 22:35:00,
2013-02-21 17:40:00,12.9,10.5,30.14,West,277,10.0,11.0,90,0.00,,,0.00,Wunderground v.1.15,2013-02-21 22:40:00,
2013-02-21 17:45:00,12.8,10.4,30.14,WNW,284,11.0,12.0,90,0.00,,,0.00,Wunderground v.1.15,2013-02-21 22:45:00,
2013-02-21 17:50:00,12.6,10.0,30.14,WNW,288,14.0,16.0,89,0.00,,,0.00,Wunderground v.1.15,2013-02-21 22:50:00,
2013-02-21 18:00:00,12.5,10.1,30.15,WNW,288,16.0,16.0,90,0.00,,,0.00,Wunderground v.1.15,2013-02-21 23:00:00,
2013-02-21 18:05:00,12.6,10.2,30.15,WNW,291,11.0,16.0,90,0.00,,,0.00,Wunderground v.1.15,2013-02-21 23:05:00,
2013-02-21 18:10:00,12.7,10.3,30.15,NW,306,6.0,9.0,90,0.00,,,0.00,Wunderground v.1.15,2013-02-21 23:10:00,
2013-02-21 18:15:00,12.6,10.2,30.15,WNW,293,7.0,13.0,90,0.00,,,0.00,Wunderground v.1.15,2013-02-21 23:15:00,
2013-02-21 18:20:00,12.7,10.3,30.15,WNW,300,9.0,9.0,90,0.00,,,0.00,Wunderground v.1.15,2013-02-21 23:20:00,
2013-02-21 18:25:00,12.6,10.0,30.15,WNW,296,6.0,9.0,89,0.00,,,0.00,Wunderground v.1.15,2013-02-21 23:25:00,
2013-02-21 18:35:00,12.8,10.4,30.16,WNW,290,4.0,9.0,90,0.00,,,0.00,Wunderground v.1.15,2013-02-21 23:35:00,
2013-02-21 18:40:00,12.8,10.4,30.16,WNW,291,4.0,4.0,90,0.00,,,0.00,Wunderground v.1.15,2013-02-21 23:40:00,
2013-02-21 18:45:00,12.9,10.5,30.16,WNW,302,4.0,9.0,90,0.00,,,0.00,Wunderground v.1.15,2013-02-21 23:45:00,
2013-02-21 18:50:00,13.0,10.6,30.17,South,190,3.0,9.0,90,0.00,,,0.00,Wunderground v.1.15,2013-02-21 23:50:00,
2013-02-21 18:55:00,13.0,10.6,30.17,NNW,347,3.0,9.0,90,0.00,,,0.00,Wunderground v.1.15,2013-02-21 23:55:00,
2013-02-21 19:00:00,12.9,10.5,30.17,WNW,300,4.0,9.0,90,0.00,,,0.00,Wunderground v.1.15,2013-02-22 00:00:00,
2013-02-21 19:05:00,12.8,10.2,30.17,ENE,59,5.0,9.0,89,0.00,,,0.00,Wunderground v.1.15,2013-02-22 00:05:00,
2013-02-21 19:10:00,12.8,10.4,30.17,WNW,302,5.0,14.0,90,0.00,,,0.00,Wunderground v.1.15,2013-02-22 00:10:00,
2013-02-21 19:15:00,12.9,10.3,30.17,NNE,21,6.0,14.0,89,0.00,,,0.00,Wunderground v.1.15,2013-02-22 00:15:00,
2013-02-21 19:20:00,12.9,10.3,30.17,NW,304,6.0,10.0,89,0.00,,,0.00,Wunderground v.1.15,2013-02-22 00:20:00,
2013-02-21 19:25:00,13.0,10.4,30.17,West,273,4.0,10.0,89,0.00,,,0.00,Wunderground v.1.15,2013-02-22 00:25:00,
2013-02-21 19:35:00,13.1,10.5,30.19,WNW,301,5.0,9.0,89,0.00,,,0.00,Wunderground v.1.15,2013-02-22 00:35:00,
2013-02-21 19:40:00,13.2,10.6,30.20,NW,314,7.0,7.0,89,0.00,,,0.00,Wunderground v.1.15,2013-02-22 00:40:00,
2013-02-21 19:45:00,13.4,11.0,30.20,WNW,297,4.0,9.0,90,0.00,,,0.00,Wunderground v.1.15,2013-02-22 00:45:00,
2013-02-21 19:50:00,13.4,10.8,30.20,West,279,6.0,9.0,89,0.00,,,0.00,Wunderground v.1.15,2013-02-22 00:50:00,
2013-02-21 19:55:00,13.5,11.1,30.21,NW,309,9.0,9.0,90,0.00,,,0.00,Wunderground v.1.15,2013-02-22 00:55:00,
2013-02-21 20:00:00,13.7,11.3,30.21,WNW,293,6.0,6.0,90,0.00,,,0.00,Wunderground v.1.15,2013-02-22 01:00:00,
2013-02-21 20:10:00,14.0,11.6,30.23,NNW,345,5.0,9.0,90,0.00,,,0.00,Wunderground v.1.15,2013-02-22 01:10:00,
2013-02-21 20:15:00,14.1,11.7,30.23,NW,313,7.0,9.0,90,0.00,,,0.00,Wunderground v.1.15,2013-02-22 01:15:00,
2013-02-21 20:20:00,14.6,12.2,30.23,WNW,292,8.0,8.0,90,0.00,,,0.00,Wunderground v.1.15,2013-02-22 01:20:00,
2013-02-21 20:30:00,15.1,12.7,30.23,WNW,303,6.0,6.0,90,0.00,,,0.00,Wunderground v.1.15,2013-02-22 01:30:00,
2013-02-21 20:35:00,15.2,12.8,30.23,South,186,5.0,9.0,90,0.00,,,0.00,Wunderground v.1.15,2013-02-22 01:35:00,
2013-02-21 20:40:00,15.3,12.9,30.24,WNW,290,4.0,9.0,90,0.00,,,0.00,Wunderground v.1.15,2013-02-22 01:40:00,
2013-02-21 20:45:00,15.4,13.0,30.25,WNW,285,4.0,9.0,90,0.00,,,0.00,Wunderground v.1.15,2013-02-22 01:45:00,
2013-02-21 20:50:00,15.4,13.0,30.26,West,263,6.0,10.0,90,0.00,,,0.00,Wunderground v.1.15,2013-02-22 01:50:00,
2013-02-21 20:55:00,15.6,13.2,30.26,WNW,294,8.0,10.0,90,0.00,,,0.00,Wunderground v.1.15,2013-02-22 01:55:00,
2013-02-21 21:00:00,15.7,13.3,30.26,WNW,282,8.0,9.0,90,0.00,,,0.00,Wunderground v.1.15,2013-02-22 02:00:00,
2013-02-21 21:10:00,15.8,13.6,30.26,WNW,298,3.0,3.0,91,0.00,,,0.00,Wunderground v.1.15,2013-02-22 02:10:00,
2013-02-21 21:15:00,16.0,13.8,30.26,WNW,298,1.0,9.0,91,0.00,,,0.00,Wunderground v.1.15,2013-02-22 02:15:00,
2013-02-21 21:20:00,16.1,13.9,30.26,WNW,296,1.0,9.0,91,0.00,,,0.00,Wunderground v.1.15,2013-02-22 02:20:00,
2013-02-21 21:25:00,16.2,14.0,30.26,WNW,296,2.0,9.0,91,0.00,,,0.00,Wunderground v.1.15,2013-02-22 02:25:00,
2013-02-21 21:30:00,16.3,14.1,30.26,WNW,300,1.0,9.0,91,0.00,,,0.00,Wunderground v.1.15,2013-02-22 02:30:00,
2013-02-21 21:35:00,16.2,14.0,30.27,West,267,1.0,9.0,91,0.00,,,0.00,Wunderground v.1.15,2013-02-22 02:35:00,
2013-02-21 21:45:00,16.5,14.6,30.27,West,267,1.0,9.0,92,0.00,,,0.00,Wunderground v.1.15,2013-02-22 02:45:00,
2013-02-21 21:50:00,16.7,14.8,30.26,West,267,1.0,1.0,92,0.00,,,0.00,Wunderground v.1.15,2013-02-22 02:50:00,
2013-02-21 21:55:00,16.8,14.9,30.27,West,267,0.0,9.0,92,0.00,,,0.00,Wunderground v.1.15,2013-02-22 02:55:00,
2013-02-21 22:00:00,16.8,14.9,30.27,West,267,0.0,9.0,92,0.00,,,0.00,Wunderground v.1.15,2013-02-22 03:00:00,
2013-02-21 22:05:00,17.0,15.1,30.27,West,267,1.0,9.0,92,0.00,,,0.00,Wunderground v.1.15,2013-02-22 03:05:00,
2013-02-21 22:10:00,17.1,15.2,30.27,WNW,299,1.0,9.0,92,0.00,,,0.00,Wunderground v.1.15,2013-02-22 03:10:00,
2013-02-21 22:20:00,17.2,15.5,30.27,NW,310,2.0,2.0,93,0.00,,,0.00,Wunderground v.1.15,2013-02-22 03:20:00,
2013-02-21 22:25:00,17.3,15.6,30.27,SE,130,1.0,9.0,93,0.00,,,0.00,Wunderground v.1.15,2013-02-22 03:25:00,
2013-02-21 22:30:00,17.5,15.8,30.27,West,264,1.0,9.0,93,0.00,,,0.00,Wunderground v.1.15,2013-02-22 03:30:00,
2013-02-21 22:35:00,17.5,15.8,30.27,West,263,1.0,9.0,93,0.00,,,0.00,Wunderground v.1.15,2013-02-22 03:35:00,
2013-02-21 22:40:00,17.4,15.7,30.27,WNW,284,2.0,9.0,93,0.00,,,0.00,Wunderground v.1.15,2013-02-22 03:40:00,
2013-02-21 22:50:00,17.3,15.6,30.27,NNW,337,4.0,4.0,93,0.00,,,0.00,Wunderground v.1.15,2013-02-22 03:50:00,
2013-02-21 22:55:00,17.3,15.6,30.28,NNW,340,3.0,9.0,93,0.00,,,0.00,Wunderground v.1.15,2013-02-22 03:55:00,
2013-02-21 23:00:00,17.3,15.6,30.28,ENE,59,3.0,3.0,93,0.00,,,0.00,Wunderground v.1.15,2013-02-22 04:00:00,
2013-02-21 23:05:00,17.3,15.9,30.27,NE,44,2.0,9.0,94,0.00,,,0.00,Wunderground v.1.15,2013-02-22 04:05:00,
2013-02-21 23:10:00,17.4,16.0,30.27,NNW,337,2.0,9.0,94,0.00,,,0.00,Wunderground v.1.15,2013-02-22 04:10:00,
2013-02-21 23:20:00,17.5,16.1,30.27,North,9,2.0,9.0,94,0.00,,,0.00,Wunderground v.1.15,2013-02-22 04:20:00,
2013-02-21 23:25:00,17.3,15.9,30.27,NW,315,2.0,9.0,94,0.00,,,0.00,Wunderground v.1.15,2013-02-22 04:25:00,
2013-02-21 23:30:00,17.3,15.9,30.27,WNW,296,2.0,9.0,94,0.00,,,0.00,Wunderground v.1.15,2013-02-22 04:30:00,
2013-02-21 23:35:00,17.5,16.1,30.27,NE,52,1.0,9.0,94,0.00,,,0.00,Wunderground v.1.15,2013-02-22 04:35:00,
2013-02-21 23:40:00,17.5,16.1,30.27,WSW,239,1.0,1.0,94,0.00,,,0.00,Wunderground v.1.15,2013-02-22 04:40:00,
2013-02-21 23:50:00,17.5,16.1,30.26,West,278,1.0,9.0,94,0.00,,,0.00,Wunderground v.1.15,2013-02-22 04:50:00,
2013-02-21 23:55:00,17.6,16.2,30.26,West,278,1.0,9.0,94,0.00,,,0.00,Wunderground v.1.15,2013-02-22 04:55:00,